Aviation Digital Data Service (ADDS)

Output produced by METARs form (0324 UTC 19 August 2019)
found at http://www.aviationweather.gov/metar/data/
 
Forecast for: LQMO (MOSTAR AIRPORT , BA)
Text: TAF LQMO 182300Z 1900/1924 18004KT CAVOK TX37/1914Z TN17/1904Z
Forecast period: 0000 UTC 19 August 2019 to 0000 UTC 20 August 2019
Forecast type: FROM: standard forecast or significant change
Winds: from the S (180 degrees) at 5 MPH (4 knots; 2.1 m/s)
Visibility: 6 or more miles 10+ km)
Ceiling: unknown
Clouds: missing
Weather: no significant weather forecast for this period
Text: PROB30
Forecast period: 1200 to 1600 UTC 19 August 2019
Forecast type: TEMPORARY: The following changes expected for less than half the time period
Winds: from the SW (220 degrees) at 12 MPH (10 knots; 5.1 m/s)
Visibility: missing
Ceiling: unknown
Clouds: missing
Weather: no significant weather forecast for this period